sensor_id;sensor_type;location;lat;lon;timestamp;P1;durP1;ratioP1;P2;durP2;ratioP2
7108;SDS011;29079;41.930;25.558;2023-05-29T00:01:05;9.00;;;5.93;;
7108;SDS011;29079;41.930;25.558;2023-05-29T00:03:55;13.32;;;6.18;;
7108;SDS011;29079;41.930;25.558;2023-05-29T00:06:43;13.88;;;7.55;;
7108;SDS011;29079;41.930;25.558;2023-05-29T00:09:31;11.52;;;5.53;;
7108;SDS011;29079;41.930;25.558;2023-05-29T00:12:18;9.88;;;5.53;;
7108;SDS011;29079;41.930;25.558;2023-05-29T00:15:06;9.75;;;6.00;;
7108;SDS011;29079;41.930;25.558;2023-05-29T00:17:57;10.15;;;6.30;;
7108;SDS011;29079;41.930;25.558;2023-05-29T00:20:45;11.55;;;5.80;;
7108;SDS011;29079;41.930;25.558;2023-05-29T00:23:33;8.48;;;5.97;;
7108;SDS011;29079;41.930;25.558;2023-05-29T00:26:22;11.20;;;6.03;;
7108;SDS011;29079;41.930;25.558;2023-05-29T00:29:09;11.50;;;6.38;;
7108;SDS011;29079;41.930;25.558;2023-05-29T00:31:57;9.55;;;5.47;;
7108;SDS011;29079;41.930;25.558;2023-05-29T00:34:47;17.83;;;7.07;;
7108;SDS011;29079;41.930;25.558;2023-05-29T00:37:34;8.48;;;5.82;;
7108;SDS011;29079;41.930;25.558;2023-05-29T00:40:22;9.85;;;5.85;;
7108;SDS011;29079;41.930;25.558;2023-05-29T00:43:10;6.90;;;5.65;;
7108;SDS011;29079;41.930;25.558;2023-05-29T00:45:58;9.68;;;6.43;;
7108;SDS011;29079;41.930;25.558;2023-05-29T00:48:46;14.68;;;6.93;;
7108;SDS011;29079;41.930;25.558;2023-05-29T00:51:36;10.95;;;6.65;;
7108;SDS011;29079;41.930;25.558;2023-05-29T00:54:27;10.70;;;6.10;;
7108;SDS011;29079;41.930;25.558;2023-05-29T00:57:16;10.70;;;7.45;;
7108;SDS011;29079;41.930;25.558;2023-05-29T01:00:05;10.63;;;6.30;;
7108;SDS011;29079;41.930;25.558;2023-05-29T01:02:56;10.20;;;6.55;;
7108;SDS011;29079;41.930;25.558;2023-05-29T01:05:45;7.88;;;6.38;;
7108;SDS011;29079;41.930;25.558;2023-05-29T01:08:35;9.48;;;6.45;;
7108;SDS011;29079;41.930;25.558;2023-05-29T01:11:24;13.10;;;6.22;;
7108;SDS011;29079;41.930;25.558;2023-05-29T01:14:21;12.00;;;5.85;;
7108;SDS011;29079;41.930;25.558;2023-05-29T01:17:17;11.32;;;5.90;;
7108;SDS011;29079;41.930;25.558;2023-05-29T01:20:08;8.35;;;6.57;;
7108;SDS011;29079;41.930;25.558;2023-05-29T01:26:42;13.43;;;5.47;;
7108;SDS011;29079;41.930;25.558;2023-05-29T01:29:34;9.27;;;5.88;;
7108;SDS011;29079;41.930;25.558;2023-05-29T01:32:24;10.30;;;5.20;;
7108;SDS011;29079;41.930;25.558;2023-05-29T01:35:13;7.13;;;4.63;;
7108;SDS011;29079;41.930;25.558;2023-05-29T01:38:01;8.10;;;4.82;;
7108;SDS011;29079;41.930;25.558;2023-05-29T01:40:49;7.07;;;5.03;;
7108;SDS011;29079;41.930;25.558;2023-05-29T01:43:40;11.82;;;5.10;;
7108;SDS011;29079;41.930;25.558;2023-05-29T01:46:28;8.38;;;4.97;;
7108;SDS011;29079;41.930;25.558;2023-05-29T01:49:16;12.38;;;4.93;;
7108;SDS011;29079;41.930;25.558;2023-05-29T01:52:04;9.98;;;6.95;;
7108;SDS011;29079;41.930;25.558;2023-05-29T01:54:52;6.55;;;5.60;;
7108;SDS011;29079;41.930;25.558;2023-05-29T01:57:40;4.97;;;4.45;;
7108;SDS011;29079;41.930;25.558;2023-05-29T02:00:30;8.68;;;4.68;;
7108;SDS011;29079;41.930;25.558;2023-05-29T02:03:18;7.20;;;4.57;;
7108;SDS011;29079;41.930;25.558;2023-05-29T02:06:06;5.57;;;4.47;;
7108;SDS011;29079;41.930;25.558;2023-05-29T02:08:53;6.75;;;4.63;;
7108;SDS011;29079;41.930;25.558;2023-05-29T02:11:41;13.45;;;5.53;;
7108;SDS011;29079;41.930;25.558;2023-05-29T02:14:31;10.90;;;5.85;;
7108;SDS011;29079;41.930;25.558;2023-05-29T02:17:21;8.43;;;5.72;;
7108;SDS011;29079;41.930;25.558;2023-05-29T02:20:09;7.47;;;5.32;;
7108;SDS011;29079;41.930;25.558;2023-05-29T02:22:58;8.40;;;5.90;;
7108;SDS011;29079;41.930;25.558;2023-05-29T02:25:45;7.35;;;5.45;;
7108;SDS011;29079;41.930;25.558;2023-05-29T02:28:33;5.95;;;4.82;;
7108;SDS011;29079;41.930;25.558;2023-05-29T02:31:21;8.75;;;5.88;;
7108;SDS011;29079;41.930;25.558;2023-05-29T02:34:10;7.95;;;5.13;;
7108;SDS011;29079;41.930;25.558;2023-05-29T02:36:58;8.32;;;5.75;;
7108;SDS011;29079;41.930;25.558;2023-05-29T02:39:46;7.05;;;5.70;;
7108;SDS011;29079;41.930;25.558;2023-05-29T02:42:34;15.23;;;5.65;;
7108;SDS011;29079;41.930;25.558;2023-05-29T02:45:22;9.95;;;6.13;;
7108;SDS011;29079;41.930;25.558;2023-05-29T02:48:10;10.80;;;5.70;;
7108;SDS011;29079;41.930;25.558;2023-05-29T02:50:59;11.10;;;5.60;;
7108;SDS011;29079;41.930;25.558;2023-05-29T02:53:46;8.18;;;5.43;;
7108;SDS011;29079;41.930;25.558;2023-05-29T02:56:35;10.18;;;5.88;;
7108;SDS011;29079;41.930;25.558;2023-05-29T02:59:23;9.93;;;5.97;;
7108;SDS011;29079;41.930;25.558;2023-05-29T03:02:11;9.00;;;5.40;;
7108;SDS011;29079;41.930;25.558;2023-05-29T03:04:59;8.32;;;5.53;;
7108;SDS011;29079;41.930;25.558;2023-05-29T03:07:48;10.43;;;5.07;;
7108;SDS011;29079;41.930;25.558;2023-05-29T03:10:36;8.10;;;5.07;;
7108;SDS011;29079;41.930;25.558;2023-05-29T03:13:24;7.68;;;5.05;;
7108;SDS011;29079;41.930;25.558;2023-05-29T03:16:12;6.57;;;4.90;;
7108;SDS011;29079;41.930;25.558;2023-05-29T03:19:00;12.60;;;5.90;;
7108;SDS011;29079;41.930;25.558;2023-05-29T03:21:48;8.40;;;5.68;;
7108;SDS011;29079;41.930;25.558;2023-05-29T03:24:37;15.02;;;5.50;;
7108;SDS011;29079;41.930;25.558;2023-05-29T03:27:25;9.65;;;6.25;;
7108;SDS011;29079;41.930;25.558;2023-05-29T03:30:13;5.65;;;5.05;;
7108;SDS011;29079;41.930;25.558;2023-05-29T03:33:01;14.38;;;8.50;;
7108;SDS011;29079;41.930;25.558;2023-05-29T03:35:50;8.73;;;5.82;;
7108;SDS011;29079;41.930;25.558;2023-05-29T03:38:37;7.15;;;5.07;;
7108;SDS011;29079;41.930;25.558;2023-05-29T03:41:27;18.80;;;6.47;;
7108;SDS011;29079;41.930;25.558;2023-05-29T03:44:15;6.68;;;5.47;;
7108;SDS011;29079;41.930;25.558;2023-05-29T03:47:03;7.13;;;5.38;;
7108;SDS011;29079;41.930;25.558;2023-05-29T03:49:50;8.45;;;4.95;;
7108;SDS011;29079;41.930;25.558;2023-05-29T03:52:38;6.72;;;5.40;;
7108;SDS011;29079;41.930;25.558;2023-05-29T03:55:26;7.38;;;4.97;;
7108;SDS011;29079;41.930;25.558;2023-05-29T03:58:15;13.13;;;6.13;;
7108;SDS011;29079;41.930;25.558;2023-05-29T04:01:03;6.60;;;5.18;;
7108;SDS011;29079;41.930;25.558;2023-05-29T04:03:51;10.30;;;5.97;;
7108;SDS011;29079;41.930;25.558;2023-05-29T04:06:39;10.57;;;5.57;;
7108;SDS011;29079;41.930;25.558;2023-05-29T04:09:27;9.63;;;5.82;;
7108;SDS011;29079;41.930;25.558;2023-05-29T04:12:15;6.03;;;5.03;;
7108;SDS011;29079;41.930;25.558;2023-05-29T04:15:05;11.43;;;7.60;;
7108;SDS011;29079;41.930;25.558;2023-05-29T04:17:53;15.20;;;10.07;;
7108;SDS011;29079;41.930;25.558;2023-05-29T04:20:42;10.93;;;6.20;;
7108;SDS011;29079;41.930;25.558;2023-05-29T04:23:33;7.57;;;6.40;;
7108;SDS011;29079;41.930;25.558;2023-05-29T04:26:21;8.07;;;5.55;;
7108;SDS011;29079;41.930;25.558;2023-05-29T04:29:12;8.18;;;6.18;;
7108;SDS011;29079;41.930;25.558;2023-05-29T04:32:01;9.88;;;5.40;;
7108;SDS011;29079;41.930;25.558;2023-05-29T04:34:50;8.45;;;4.53;;
7108;SDS011;29079;41.930;25.558;2023-05-29T04:37:38;10.77;;;5.95;;
7108;SDS011;29079;41.930;25.558;2023-05-29T04:40:26;8.40;;;5.97;;
7108;SDS011;29079;41.930;25.558;2023-05-29T04:43:13;9.38;;;5.47;;
7108;SDS011;29079;41.930;25.558;2023-05-29T04:46:02;8.93;;;5.80;;
7108;SDS011;29079;41.930;25.558;2023-05-29T04:48:52;12.77;;;6.40;;
7108;SDS011;29079;41.930;25.558;2023-05-29T04:51:40;12.15;;;6.03;;
7108;SDS011;29079;41.930;25.558;2023-05-29T04:54:28;7.75;;;5.20;;
7108;SDS011;29079;41.930;25.558;2023-05-29T04:57:15;14.80;;;7.18;;
7108;SDS011;29079;41.930;25.558;2023-05-29T05:00:03;6.70;;;5.30;;
7108;SDS011;29079;41.930;25.558;2023-05-29T05:02:53;9.02;;;6.43;;
7108;SDS011;29079;41.930;25.558;2023-05-29T05:05:43;8.68;;;5.88;;
7108;SDS011;29079;41.930;25.558;2023-05-29T05:08:31;9.57;;;5.53;;
7108;SDS011;29079;41.930;25.558;2023-05-29T05:11:19;13.00;;;6.07;;
7108;SDS011;29079;41.930;25.558;2023-05-29T05:14:07;10.63;;;6.18;;
7108;SDS011;29079;41.930;25.558;2023-05-29T05:16:55;12.45;;;6.78;;
7108;SDS011;29079;41.930;25.558;2023-05-29T05:19:43;8.52;;;6.18;;
7108;SDS011;29079;41.930;25.558;2023-05-29T05:22:32;15.70;;;6.78;;
7108;SDS011;29079;41.930;25.558;2023-05-29T05:25:20;8.50;;;6.88;;
7108;SDS011;29079;41.930;25.558;2023-05-29T05:28:08;11.77;;;7.10;;
7108;SDS011;29079;41.930;25.558;2023-05-29T05:30:56;10.23;;;7.20;;
7108;SDS011;29079;41.930;25.558;2023-05-29T05:33:44;8.20;;;6.10;;
7108;SDS011;29079;41.930;25.558;2023-05-29T05:36:32;10.40;;;6.18;;
7108;SDS011;29079;41.930;25.558;2023-05-29T05:39:21;7.72;;;5.88;;
7108;SDS011;29079;41.930;25.558;2023-05-29T05:42:09;10.13;;;6.72;;
7108;SDS011;29079;41.930;25.558;2023-05-29T05:44:56;14.68;;;6.40;;
7108;SDS011;29079;41.930;25.558;2023-05-29T05:47:44;15.65;;;6.47;;
7108;SDS011;29079;41.930;25.558;2023-05-29T05:50:33;7.10;;;5.78;;
7108;SDS011;29079;41.930;25.558;2023-05-29T05:53:21;9.57;;;7.50;;
7108;SDS011;29079;41.930;25.558;2023-05-29T05:56:10;14.65;;;7.35;;
7108;SDS011;29079;41.930;25.558;2023-05-29T05:58:58;11.43;;;6.30;;
7108;SDS011;29079;41.930;25.558;2023-05-29T06:01:46;9.90;;;6.60;;
7108;SDS011;29079;41.930;25.558;2023-05-29T06:04:34;9.32;;;6.72;;
7108;SDS011;29079;41.930;25.558;2023-05-29T06:07:22;11.13;;;7.32;;
7108;SDS011;29079;41.930;25.558;2023-05-29T06:10:10;13.38;;;7.60;;
7108;SDS011;29079;41.930;25.558;2023-05-29T06:13:00;11.57;;;6.70;;
7108;SDS011;29079;41.930;25.558;2023-05-29T06:15:48;20.33;;;12.90;;
7108;SDS011;29079;41.930;25.558;2023-05-29T06:18:36;9.98;;;7.57;;
7108;SDS011;29079;41.930;25.558;2023-05-29T06:21:24;8.57;;;6.72;;
7108;SDS011;29079;41.930;25.558;2023-05-29T06:24:12;10.77;;;7.60;;
7108;SDS011;29079;41.930;25.558;2023-05-29T06:27:00;8.75;;;7.57;;
7108;SDS011;29079;41.930;25.558;2023-05-29T06:29:49;9.90;;;7.07;;
7108;SDS011;29079;41.930;25.558;2023-05-29T06:32:37;12.15;;;7.22;;
7108;SDS011;29079;41.930;25.558;2023-05-29T06:35:25;12.00;;;6.82;;
7108;SDS011;29079;41.930;25.558;2023-05-29T06:38:13;11.45;;;6.97;;
7108;SDS011;29079;41.930;25.558;2023-05-29T06:41:01;12.15;;;7.55;;
7108;SDS011;29079;41.930;25.558;2023-05-29T06:43:49;9.05;;;6.75;;
7108;SDS011;29079;41.930;25.558;2023-05-29T06:46:39;10.77;;;7.00;;
7108;SDS011;29079;41.930;25.558;2023-05-29T06:49:27;12.27;;;7.32;;
7108;SDS011;29079;41.930;25.558;2023-05-29T06:52:15;8.60;;;6.85;;
7108;SDS011;29079;41.930;25.558;2023-05-29T06:55:03;11.02;;;6.60;;
7108;SDS011;29079;41.930;25.558;2023-05-29T06:57:51;12.18;;;7.78;;
7108;SDS011;29079;41.930;25.558;2023-05-29T07:00:39;16.15;;;8.10;;
7108;SDS011;29079;41.930;25.558;2023-05-29T07:03:28;20.20;;;7.63;;
7108;SDS011;29079;41.930;25.558;2023-05-29T07:06:16;13.80;;;9.02;;
7108;SDS011;29079;41.930;25.558;2023-05-29T07:09:04;13.73;;;8.57;;
7108;SDS011;29079;41.930;25.558;2023-05-29T07:11:52;9.38;;;7.90;;
7108;SDS011;29079;41.930;25.558;2023-05-29T07:14:40;11.38;;;7.57;;
7108;SDS011;29079;41.930;25.558;2023-05-29T07:17:27;11.70;;;7.47;;
7108;SDS011;29079;41.930;25.558;2023-05-29T07:20:17;8.85;;;6.32;;
7108;SDS011;29079;41.930;25.558;2023-05-29T07:23:06;12.73;;;7.90;;
7108;SDS011;29079;41.930;25.558;2023-05-29T07:25:54;12.13;;;8.30;;
7108;SDS011;29079;41.930;25.558;2023-05-29T07:28:42;9.98;;;7.78;;
7108;SDS011;29079;41.930;25.558;2023-05-29T07:31:30;12.95;;;7.85;;
7108;SDS011;29079;41.930;25.558;2023-05-29T07:34:18;9.55;;;6.88;;
7108;SDS011;29079;41.930;25.558;2023-05-29T07:37:07;11.70;;;6.68;;
7108;SDS011;29079;41.930;25.558;2023-05-29T07:39:55;8.60;;;7.03;;
7108;SDS011;29079;41.930;25.558;2023-05-29T07:42:42;10.57;;;6.55;;
7108;SDS011;29079;41.930;25.558;2023-05-29T07:45:30;8.15;;;6.20;;
7108;SDS011;29079;41.930;25.558;2023-05-29T07:48:18;9.70;;;6.43;;
7108;SDS011;29079;41.930;25.558;2023-05-29T07:51:08;8.55;;;6.00;;
7108;SDS011;29079;41.930;25.558;2023-05-29T07:53:58;10.38;;;5.85;;
7108;SDS011;29079;41.930;25.558;2023-05-29T07:56:46;11.60;;;7.22;;
7108;SDS011;29079;41.930;25.558;2023-05-29T07:59:33;11.57;;;6.93;;
7108;SDS011;29079;41.930;25.558;2023-05-29T08:02:21;11.57;;;7.47;;
7108;SDS011;29079;41.930;25.558;2023-05-29T08:05:09;13.05;;;6.65;;
7108;SDS011;29079;41.930;25.558;2023-05-29T08:07:59;7.40;;;5.97;;
7108;SDS011;29079;41.930;25.558;2023-05-29T08:10:48;11.00;;;6.25;;
7108;SDS011;29079;41.930;25.558;2023-05-29T08:13:36;11.52;;;6.20;;
7108;SDS011;29079;41.930;25.558;2023-05-29T08:16:24;7.45;;;6.07;;
7108;SDS011;29079;41.930;25.558;2023-05-29T08:19:13;8.70;;;6.50;;
7108;SDS011;29079;41.930;25.558;2023-05-29T08:22:01;8.10;;;6.35;;
7108;SDS011;29079;41.930;25.558;2023-05-29T08:24:49;9.10;;;6.38;;
7108;SDS011;29079;41.930;25.558;2023-05-29T08:27:38;10.98;;;6.90;;
7108;SDS011;29079;41.930;25.558;2023-05-29T08:30:26;7.32;;;6.35;;
7108;SDS011;29079;41.930;25.558;2023-05-29T08:33:14;10.45;;;7.00;;
7108;SDS011;29079;41.930;25.558;2023-05-29T08:36:02;10.60;;;7.45;;
7108;SDS011;29079;41.930;25.558;2023-05-29T08:38:50;11.95;;;6.97;;
7108;SDS011;29079;41.930;25.558;2023-05-29T08:41:41;10.15;;;6.90;;
7108;SDS011;29079;41.930;25.558;2023-05-29T08:44:39;9.32;;;6.20;;
7108;SDS011;29079;41.930;25.558;2023-05-29T08:47:27;7.50;;;5.70;;
7108;SDS011;29079;41.930;25.558;2023-05-29T08:50:20;9.60;;;6.43;;
7108;SDS011;29079;41.930;25.558;2023-05-29T08:53:09;8.80;;;6.93;;
7108;SDS011;29079;41.930;25.558;2023-05-29T08:55:57;8.35;;;6.30;;
7108;SDS011;29079;41.930;25.558;2023-05-29T08:58:45;6.72;;;5.97;;
7108;SDS011;29079;41.930;25.558;2023-05-29T09:01:35;11.43;;;6.93;;
7108;SDS011;29079;41.930;25.558;2023-05-29T09:04:25;11.50;;;7.97;;
7108;SDS011;29079;41.930;25.558;2023-05-29T09:07:13;9.98;;;6.57;;
7108;SDS011;29079;41.930;25.558;2023-05-29T09:10:01;7.93;;;6.55;;
7108;SDS011;29079;41.930;25.558;2023-05-29T09:12:49;5.90;;;5.30;;
7108;SDS011;29079;41.930;25.558;2023-05-29T09:15:37;7.47;;;5.90;;
7108;SDS011;29079;41.930;25.558;2023-05-29T09:18:30;9.95;;;6.28;;
7108;SDS011;29079;41.930;25.558;2023-05-29T09:21:25;11.23;;;6.32;;
7108;SDS011;29079;41.930;25.558;2023-05-29T09:24:14;9.32;;;6.97;;
7108;SDS011;29079;41.930;25.558;2023-05-29T09:27:02;9.70;;;6.07;;
7108;SDS011;29079;41.930;25.558;2023-05-29T09:29:50;8.40;;;5.40;;
7108;SDS011;29079;41.930;25.558;2023-05-29T09:32:38;11.00;;;6.25;;
7108;SDS011;29079;41.930;25.558;2023-05-29T09:35:33;8.88;;;6.47;;
7108;SDS011;29079;41.930;25.558;2023-05-29T09:38:22;12.98;;;5.85;;
7108;SDS011;29079;41.930;25.558;2023-05-29T09:41:29;6.20;;;5.50;;
7108;SDS011;29079;41.930;25.558;2023-05-29T09:44:18;7.90;;;5.68;;
7108;SDS011;29079;41.930;25.558;2023-05-29T09:47:06;8.38;;;4.75;;
7108;SDS011;29079;41.930;25.558;2023-05-29T09:49:55;7.72;;;5.68;;
7108;SDS011;29079;41.930;25.558;2023-05-29T09:52:44;6.72;;;5.10;;
7108;SDS011;29079;41.930;25.558;2023-05-29T09:55:32;9.50;;;5.57;;
7108;SDS011;29079;41.930;25.558;2023-05-29T09:58:22;7.63;;;5.47;;
7108;SDS011;29079;41.930;25.558;2023-05-29T10:01:10;5.80;;;5.18;;
7108;SDS011;29079;41.930;25.558;2023-05-29T10:03:58;5.85;;;5.13;;
7108;SDS011;29079;41.930;25.558;2023-05-29T10:06:46;8.07;;;5.28;;
7108;SDS011;29079;41.930;25.558;2023-05-29T10:09:41;7.35;;;5.22;;
7108;SDS011;29079;41.930;25.558;2023-05-29T10:12:32;6.53;;;5.25;;
7108;SDS011;29079;41.930;25.558;2023-05-29T10:15:24;6.18;;;5.28;;
7108;SDS011;29079;41.930;25.558;2023-05-29T10:18:16;7.07;;;5.97;;
7108;SDS011;29079;41.930;25.558;2023-05-29T10:21:08;8.23;;;5.20;;
7108;SDS011;29079;41.930;25.558;2023-05-29T10:23:59;6.38;;;4.85;;
7108;SDS011;29079;41.930;25.558;2023-05-29T10:26:53;6.15;;;4.95;;
7108;SDS011;29079;41.930;25.558;2023-05-29T10:29:43;5.70;;;4.75;;
7108;SDS011;29079;41.930;25.558;2023-05-29T10:32:39;7.22;;;5.10;;
7108;SDS011;29079;41.930;25.558;2023-05-29T10:35:45;6.38;;;5.55;;
7108;SDS011;29079;41.930;25.558;2023-05-29T10:38:35;7.60;;;5.60;;
7108;SDS011;29079;41.930;25.558;2023-05-29T10:41:31;9.27;;;4.97;;
7108;SDS011;29079;41.930;25.558;2023-05-29T10:44:39;7.15;;;5.45;;
7108;SDS011;29079;41.930;25.558;2023-05-29T10:47:28;8.20;;;5.72;;
7108;SDS011;29079;41.930;25.558;2023-05-29T10:50:18;20.42;;;6.30;;
7108;SDS011;29079;41.930;25.558;2023-05-29T10:53:24;7.20;;;5.57;;
7108;SDS011;29079;41.930;25.558;2023-05-29T10:56:22;7.43;;;5.10;;
7108;SDS011;29079;41.930;25.558;2023-05-29T10:59:12;12.55;;;4.68;;
7108;SDS011;29079;41.930;25.558;2023-05-29T11:02:01;11.20;;;4.07;;
7108;SDS011;29079;41.930;25.558;2023-05-29T11:05:04;11.13;;;4.75;;
7108;SDS011;29079;41.930;25.558;2023-05-29T11:07:55;25.65;;;5.20;;
7108;SDS011;29079;41.930;25.558;2023-05-29T11:10:45;19.50;;;5.97;;
7108;SDS011;29079;41.930;25.558;2023-05-29T11:13:51;24.50;;;7.93;;
7108;SDS011;29079;41.930;25.558;2023-05-29T11:16:39;32.45;;;9.23;;
7108;SDS011;29079;41.930;25.558;2023-05-29T11:19:29;35.60;;;10.75;;
7108;SDS011;29079;41.930;25.558;2023-05-29T11:22:19;21.08;;;9.52;;
7108;SDS011;29079;41.930;25.558;2023-05-29T11:25:14;22.75;;;9.38;;
7108;SDS011;29079;41.930;25.558;2023-05-29T11:28:03;20.35;;;7.97;;
7108;SDS011;29079;41.930;25.558;2023-05-29T11:30:55;23.60;;;9.18;;
7108;SDS011;29079;41.930;25.558;2023-05-29T11:33:47;13.85;;;8.10;;
7108;SDS011;29079;41.930;25.558;2023-05-29T11:36:38;15.10;;;8.30;;
7108;SDS011;29079;41.930;25.558;2023-05-29T11:39:26;16.60;;;9.07;;
7108;SDS011;29079;41.930;25.558;2023-05-29T11:42:15;14.82;;;8.38;;
7108;SDS011;29079;41.930;25.558;2023-05-29T11:45:09;15.82;;;7.80;;
7108;SDS011;29079;41.930;25.558;2023-05-29T11:48:02;15.30;;;10.20;;
7108;SDS011;29079;41.930;25.558;2023-05-29T11:50:50;21.42;;;10.93;;
7108;SDS011;29079;41.930;25.558;2023-05-29T11:53:41;16.83;;;10.25;;
7108;SDS011;29079;41.930;25.558;2023-05-29T11:56:29;17.75;;;9.63;;
7108;SDS011;29079;41.930;25.558;2023-05-29T11:59:17;18.52;;;9.70;;
7108;SDS011;29079;41.930;25.558;2023-05-29T12:02:05;17.08;;;9.23;;
7108;SDS011;29079;41.930;25.558;2023-05-29T12:05:00;18.58;;;9.23;;
7108;SDS011;29079;41.930;25.558;2023-05-29T12:07:48;17.80;;;9.75;;
7108;SDS011;29079;41.930;25.558;2023-05-29T12:10:42;13.68;;;9.27;;
7108;SDS011;29079;41.930;25.558;2023-05-29T12:13:33;30.23;;;11.07;;
7108;SDS011;29079;41.930;25.558;2023-05-29T12:16:21;21.42;;;10.32;;
7108;SDS011;29079;41.930;25.558;2023-05-29T12:19:09;17.13;;;10.25;;
7108;SDS011;29079;41.930;25.558;2023-05-29T12:21:57;15.65;;;10.80;;
7108;SDS011;29079;41.930;25.558;2023-05-29T12:24:45;25.80;;;10.55;;
7108;SDS011;29079;41.930;25.558;2023-05-29T12:27:34;19.83;;;10.65;;
7108;SDS011;29079;41.930;25.558;2023-05-29T12:30:27;20.48;;;11.00;;
7108;SDS011;29079;41.930;25.558;2023-05-29T12:33:25;18.85;;;10.60;;
7108;SDS011;29079;41.930;25.558;2023-05-29T12:36:17;16.90;;;9.93;;
7108;SDS011;29079;41.930;25.558;2023-05-29T12:39:05;18.38;;;11.80;;
7108;SDS011;29079;41.930;25.558;2023-05-29T12:41:55;25.33;;;12.77;;
7108;SDS011;29079;41.930;25.558;2023-05-29T12:44:44;15.95;;;11.07;;
7108;SDS011;29079;41.930;25.558;2023-05-29T12:47:32;20.67;;;11.10;;
7108;SDS011;29079;41.930;25.558;2023-05-29T12:50:21;19.40;;;11.38;;
7108;SDS011;29079;41.930;25.558;2023-05-29T12:53:10;18.05;;;11.43;;
7108;SDS011;29079;41.930;25.558;2023-05-29T12:56:00;18.95;;;11.15;;
7108;SDS011;29079;41.930;25.558;2023-05-29T12:58:50;15.57;;;9.82;;
7108;SDS011;29079;41.930;25.558;2023-05-29T13:01:40;14.55;;;10.00;;
7108;SDS011;29079;41.930;25.558;2023-05-29T13:04:29;16.40;;;12.60;;
7108;SDS011;29079;41.930;25.558;2023-05-29T13:07:17;21.23;;;12.02;;
7108;SDS011;29079;41.930;25.558;2023-05-29T13:10:05;14.25;;;11.00;;
7108;SDS011;29079;41.930;25.558;2023-05-29T13:12:54;18.88;;;13.02;;
7108;SDS011;29079;41.930;25.558;2023-05-29T13:15:45;17.33;;;12.48;;
7108;SDS011;29079;41.930;25.558;2023-05-29T13:18:34;16.20;;;11.32;;
7108;SDS011;29079;41.930;25.558;2023-05-29T13:21:22;13.30;;;10.68;;
7108;SDS011;29079;41.930;25.558;2023-05-29T13:24:10;15.07;;;9.05;;
7108;SDS011;29079;41.930;25.558;2023-05-29T13:26:58;15.15;;;8.73;;
7108;SDS011;29079;41.930;25.558;2023-05-29T13:29:46;14.18;;;9.10;;
7108;SDS011;29079;41.930;25.558;2023-05-29T13:32:34;9.68;;;7.88;;
7108;SDS011;29079;41.930;25.558;2023-05-29T13:35:23;12.70;;;8.50;;
7108;SDS011;29079;41.930;25.558;2023-05-29T13:38:11;16.33;;;8.43;;
7108;SDS011;29079;41.930;25.558;2023-05-29T13:40:59;12.98;;;8.52;;
7108;SDS011;29079;41.930;25.558;2023-05-29T13:43:47;13.27;;;9.63;;
7108;SDS011;29079;41.930;25.558;2023-05-29T13:46:35;14.15;;;9.57;;
7108;SDS011;29079;41.930;25.558;2023-05-29T13:49:23;13.95;;;9.30;;
7108;SDS011;29079;41.930;25.558;2023-05-29T13:52:12;11.32;;;8.82;;
7108;SDS011;29079;41.930;25.558;2023-05-29T13:55:00;20.35;;;10.23;;
7108;SDS011;29079;41.930;25.558;2023-05-29T13:57:52;12.75;;;9.27;;
7108;SDS011;29079;41.930;25.558;2023-05-29T14:00:40;13.77;;;9.50;;
7108;SDS011;29079;41.930;25.558;2023-05-29T14:03:28;12.63;;;9.43;;
7108;SDS011;29079;41.930;25.558;2023-05-29T14:06:18;11.27;;;9.07;;
7108;SDS011;29079;41.930;25.558;2023-05-29T14:09:07;11.43;;;9.25;;
7108;SDS011;29079;41.930;25.558;2023-05-29T14:11:56;16.08;;;9.40;;
7108;SDS011;29079;41.930;25.558;2023-05-29T14:14:45;13.00;;;9.70;;
7108;SDS011;29079;41.930;25.558;2023-05-29T14:17:33;15.15;;;10.27;;
7108;SDS011;29079;41.930;25.558;2023-05-29T14:20:21;14.52;;;10.98;;
7108;SDS011;29079;41.930;25.558;2023-05-29T14:23:09;13.60;;;8.77;;
7108;SDS011;29079;41.930;25.558;2023-05-29T14:26:01;18.65;;;9.40;;
7108;SDS011;29079;41.930;25.558;2023-05-29T14:28:49;10.70;;;7.82;;
7108;SDS011;29079;41.930;25.558;2023-05-29T14:31:47;11.30;;;9.05;;
7108;SDS011;29079;41.930;25.558;2023-05-29T14:34:35;13.93;;;9.68;;
7108;SDS011;29079;41.930;25.558;2023-05-29T14:37:23;14.20;;;9.43;;
7108;SDS011;29079;41.930;25.558;2023-05-29T14:40:11;10.73;;;9.02;;
7108;SDS011;29079;41.930;25.558;2023-05-29T14:43:00;10.38;;;8.18;;
7108;SDS011;29079;41.930;25.558;2023-05-29T14:45:48;12.88;;;8.38;;
7108;SDS011;29079;41.930;25.558;2023-05-29T14:48:36;12.90;;;7.72;;
7108;SDS011;29079;41.930;25.558;2023-05-29T14:51:23;14.95;;;11.10;;
7108;SDS011;29079;41.930;25.558;2023-05-29T14:54:11;12.98;;;8.10;;
7108;SDS011;29079;41.930;25.558;2023-05-29T14:56:59;13.73;;;8.30;;
7108;SDS011;29079;41.930;25.558;2023-05-29T14:59:48;12.00;;;7.38;;
7108;SDS011;29079;41.930;25.558;2023-05-29T15:02:36;11.52;;;7.93;;
7108;SDS011;29079;41.930;25.558;2023-05-29T15:05:26;11.40;;;7.22;;
7108;SDS011;29079;41.930;25.558;2023-05-29T15:08:14;8.45;;;6.93;;
7108;SDS011;29079;41.930;25.558;2023-05-29T15:11:02;8.85;;;7.30;;
7108;SDS011;29079;41.930;25.558;2023-05-29T15:13:50;11.02;;;7.10;;
7108;SDS011;29079;41.930;25.558;2023-05-29T15:16:39;9.68;;;6.95;;
7108;SDS011;29079;41.930;25.558;2023-05-29T15:19:27;10.95;;;7.45;;
7108;SDS011;29079;41.930;25.558;2023-05-29T15:22:15;9.93;;;7.13;;
7108;SDS011;29079;41.930;25.558;2023-05-29T15:25:03;12.18;;;8.20;;
7108;SDS011;29079;41.930;25.558;2023-05-29T15:27:51;9.60;;;7.53;;
7108;SDS011;29079;41.930;25.558;2023-05-29T15:30:39;9.00;;;8.10;;
7108;SDS011;29079;41.930;25.558;2023-05-29T15:33:28;10.68;;;8.25;;
7108;SDS011;29079;41.930;25.558;2023-05-29T15:36:16;10.40;;;7.78;;
7108;SDS011;29079;41.930;25.558;2023-05-29T15:39:06;8.73;;;7.25;;
7108;SDS011;29079;41.930;25.558;2023-05-29T15:41:54;8.20;;;7.35;;
7108;SDS011;29079;41.930;25.558;2023-05-29T15:44:42;11.38;;;7.95;;
7108;SDS011;29079;41.930;25.558;2023-05-29T15:47:30;9.23;;;7.75;;
7108;SDS011;29079;41.930;25.558;2023-05-29T15:50:20;13.85;;;7.30;;
7108;SDS011;29079;41.930;25.558;2023-05-29T15:53:07;9.93;;;7.47;;
7108;SDS011;29079;41.930;25.558;2023-05-29T15:55:55;10.02;;;7.05;;
7108;SDS011;29079;41.930;25.558;2023-05-29T15:58:43;9.07;;;7.20;;
7108;SDS011;29079;41.930;25.558;2023-05-29T16:01:31;12.20;;;7.28;;
7108;SDS011;29079;41.930;25.558;2023-05-29T16:04:19;7.75;;;6.72;;
7108;SDS011;29079;41.930;25.558;2023-05-29T16:07:08;13.88;;;6.90;;
7108;SDS011;29079;41.930;25.558;2023-05-29T16:09:56;13.18;;;7.78;;
7108;SDS011;29079;41.930;25.558;2023-05-29T16:12:44;7.63;;;6.05;;
7108;SDS011;29079;41.930;25.558;2023-05-29T16:15:35;9.68;;;6.57;;
7108;SDS011;29079;41.930;25.558;2023-05-29T16:18:22;10.18;;;7.57;;
7108;SDS011;29079;41.930;25.558;2023-05-29T16:21:11;8.20;;;7.40;;
7108;SDS011;29079;41.930;25.558;2023-05-29T16:24:00;9.55;;;6.35;;
7108;SDS011;29079;41.930;25.558;2023-05-29T16:26:48;15.93;;;7.47;;
7108;SDS011;29079;41.930;25.558;2023-05-29T16:29:35;7.75;;;6.75;;
7108;SDS011;29079;41.930;25.558;2023-05-29T16:32:23;12.43;;;6.80;;
7108;SDS011;29079;41.930;25.558;2023-05-29T16:35:14;9.07;;;6.53;;
7108;SDS011;29079;41.930;25.558;2023-05-29T16:38:02;10.40;;;6.97;;
7108;SDS011;29079;41.930;25.558;2023-05-29T16:40:51;7.57;;;6.80;;
7108;SDS011;29079;41.930;25.558;2023-05-29T16:43:39;11.25;;;8.00;;
7108;SDS011;29079;41.930;25.558;2023-05-29T16:46:27;7.80;;;6.65;;
7108;SDS011;29079;41.930;25.558;2023-05-29T16:49:16;8.07;;;6.45;;
7108;SDS011;29079;41.930;25.558;2023-05-29T16:52:05;11.90;;;7.78;;